Time;durP1;ratioP1;P1;durP2;ratioP2;P2;SDS_P1;SDS_P2;PMS_P1;PMS_P2;Temp;Humidity;BMP_temperature;BMP_pressure;BME280_temperature;BME280_humidity;BME280_pressure;Samples;Min_cycle;Max_cycle;Signal;HPM_P1;HPM_P2
2022/11/11 00:00:45;;;;;;;15.90;10.18;;;11.80;99.90;;;;;;5015427;28;20244;-63
2022/11/11 00:03:11;;;;;;;17.83;9.25;;;11.60;99.90;;;;;;5014167;28;20237;-63
2022/11/11 00:05:36;;;;;;;25.63;10.30;;;11.60;99.90;;;;;;5022528;28;20237;-61
2022/11/11 00:08:02;;;;;;;17.83;9.75;;;11.80;99.90;;;;;;5026658;28;20218;-62
2022/11/11 00:10:29;;;;;;;19.55;9.88;;;11.70;99.90;;;;;;5029963;28;20729;-63
2022/11/11 00:13:02;;;;;;;16.65;9.68;;;11.60;99.90;;;;;;5032245;28;20182;-63
2022/11/11 00:15:29;;;;;;;19.13;9.93;;;11.50;99.90;;;;;;5023083;28;20237;-62
2022/11/11 00:26:12;;;;;;;19.48;9.85;;;11.50;99.90;;;;;;5026452;28;20218;-61
2022/11/11 00:28:38;;;;;;;15.90;10.23;;;11.50;99.90;;;;;;5028603;28;20191;-63
2022/11/11 00:31:12;;;;;;;17.63;10.10;;;11.60;99.90;;;;;;5032076;28;20179;-63
2022/11/11 00:33:38;;;;;;;19.77;9.17;;;11.50;99.90;;;;;;5028474;28;20186;-61
2022/11/11 00:36:05;;;;;;;21.93;10.80;;;11.40;99.90;;;;;;5030165;28;20240;-63
2022/11/11 00:41:26;;;;;;;19.53;9.53;;;11.30;99.90;;;;;;5023499;28;20252;-62
2022/11/11 00:43:52;;;;;;;19.00;9.52;;;11.40;99.90;;;;;;5032263;28;20195;-61
2022/11/11 00:51:45;;;;;;;16.87;8.77;;;11.40;99.90;;;;;;5026329;28;20318;-62
2022/11/11 00:54:12;;;;;;;17.63;10.00;;;11.40;99.90;;;;;;5031527;28;20273;-63
2022/11/11 00:56:38;;;;;;;18.98;9.45;;;11.40;99.90;;;;;;5031137;28;20187;-62
2022/11/11 00:59:05;;;;;;;14.13;8.83;;;11.40;99.90;;;;;;5018359;28;20218;-64
2022/11/11 01:01:33;;;;;;;15.60;8.13;;;11.50;99.90;;;;;;5011066;28;20282;-62
2022/11/11 01:03:58;;;;;;;13.33;8.00;;;11.40;99.90;;;;;;5030707;28;20183;-63
2022/11/11 01:06:24;;;;;;;15.35;7.82;;;11.30;99.90;;;;;;4995708;28;20218;-62
2022/11/11 01:08:50;;;;;;;13.32;7.57;;;11.40;99.90;;;;;;5017341;28;20597;-63
2022/11/11 01:11:18;;;;;;;13.03;7.43;;;11.40;99.90;;;;;;5032713;28;20690;-62
2022/11/11 01:13:45;;;;;;;14.73;6.97;;;11.40;99.90;;;;;;5018188;28;20188;-63
2022/11/11 01:16:19;;;;;;;13.27;7.43;;;11.30;99.90;;;;;;5025921;28;20191;-62
2022/11/11 01:18:45;;;;;;;10.63;7.53;;;11.20;99.90;;;;;;5033449;28;20261;-64
2022/11/11 01:21:13;;;;;;;14.27;8.43;;;11.20;99.90;;;;;;5035051;28;20265;-62
2022/11/11 01:23:41;;;;;;;17.70;8.13;;;11.20;99.90;;;;;;5035903;28;20191;-64
2022/11/11 01:26:18;;;;;;;16.38;8.50;;;11.30;99.90;;;;;;5034038;28;20301;-62
2022/11/11 01:28:44;;;;;;;11.32;7.65;;;11.30;99.90;;;;;;5035641;28;20194;-63
2022/11/11 01:31:12;;;;;;;15.15;7.05;;;11.30;99.90;;;;;;5034295;28;20552;-63
2022/11/11 01:33:38;;;;;;;9.90;7.03;;;11.50;99.90;;;;;;5018365;28;20225;-63
2022/11/11 01:36:08;;;;;;;13.50;7.40;;;11.50;99.90;;;;;;5022364;28;20236;-62
2022/11/11 01:38:33;;;;;;;12.33;7.10;;;11.50;99.90;;;;;;5028308;28;20675;-62
2022/11/11 01:40:59;;;;;;;10.70;8.03;;;11.40;99.90;;;;;;5041401;28;20203;-62
2022/11/11 01:43:25;;;;;;;12.27;6.60;;;11.40;99.90;;;;;;5030396;28;20236;-62
2022/11/11 01:45:54;;;;;;;10.02;7.45;;;11.40;99.90;;;;;;5029442;28;20226;-62
2022/11/11 01:52:04;;;;;;;8.13;6.07;;;11.50;99.90;;;;;;5029852;28;20225;-63
2022/11/11 01:54:33;;;;;;;12.35;6.55;;;11.50;99.90;;;;;;4983283;28;20661;-62
2022/11/11 01:57:07;;;;;;;15.38;8.07;;;11.50;99.90;;;;;;5034112;28;20631;-68
2022/11/11 01:59:35;;;;;;;18.23;8.23;;;11.40;99.90;;;;;;5033277;28;20210;-62
2022/11/11 02:02:05;;;;;;;13.30;8.50;;;11.40;99.90;;;;;;5030605;28;20229;-63
2022/11/11 02:07:17;;;;;;;13.07;8.97;;;11.30;99.90;;;;;;5029603;28;20280;-63
2022/11/11 02:09:46;;;;;;;13.23;9.27;;;11.30;99.90;;;;;;5048099;28;20218;-63
2022/11/11 02:14:59;;;;;;;15.57;8.83;;;11.30;99.90;;;;;;5020534;28;20666;-63
2022/11/11 02:17:26;;;;;;;13.40;9.03;;;11.40;99.90;;;;;;5034974;28;20191;-63
2022/11/11 02:19:57;;;;;;;17.03;8.50;;;11.50;99.90;;;;;;5032999;28;20195;-62
2022/11/11 02:22:58;;;;;;;19.10;9.50;;;11.40;99.90;;;;;;5030871;28;20187;-62
2022/11/11 02:25:27;;;;;;;12.70;8.73;;;11.50;99.90;;;;;;5039234;28;20179;-63
2022/11/11 02:27:58;;;;;;;10.33;6.93;;;11.40;99.90;;;;;;5032884;28;20183;-63
2022/11/11 02:30:24;;;;;;;13.32;7.88;;;11.40;99.90;;;;;;5034154;28;20205;-62
2022/11/11 02:32:52;;;;;;;15.27;7.90;;;11.50;99.90;;;;;;5033721;28;20187;-63
2022/11/11 02:35:33;;;;;;;14.13;7.30;;;11.50;99.90;;;;;;5034006;28;20643;-62
2022/11/11 02:38:06;;;;;;;12.77;7.38;;;11.40;99.90;;;;;;5026576;28;20233;-63
2022/11/11 02:43:27;;;;;;;16.23;8.57;;;11.50;99.90;;;;;;5033906;28;20558;-62
2022/11/11 02:45:53;;;;;;;17.10;9.33;;;11.40;99.90;;;;;;5026987;28;20222;-63
2022/11/11 02:48:19;;;;;;;15.90;8.73;;;11.40;99.90;;;;;;5023950;28;20210;-63
2022/11/11 02:50:45;;;;;;;19.40;10.47;;;11.50;99.90;;;;;;5027642;28;20190;-63
2022/11/11 02:53:10;;;;;;;21.73;11.17;;;11.40;99.90;;;;;;5030184;28;20237;-62
2022/11/11 02:55:36;;;;;;;21.07;10.27;;;11.40;99.90;;;;;;5030663;28;20186;-62
2022/11/11 02:58:02;;;;;;;19.83;10.93;;;11.10;99.90;;;;;;5016383;28;20191;-62
2022/11/11 03:00:28;;;;;;;20.93;10.73;;;11.10;99.90;;;;;;5033222;28;20237;-63
2022/11/11 03:02:53;;;;;;;21.93;11.03;;;11.20;99.90;;;;;;5026600;28;20592;-63
2022/11/11 03:05:19;;;;;;;17.85;10.68;;;11.30;99.90;;;;;;5032977;28;20187;-61
2022/11/11 03:07:45;;;;;;;21.73;11.57;;;11.20;99.90;;;;;;5032818;28;20187;-62
2022/11/11 03:10:11;;;;;;;23.92;11.38;;;11.10;99.90;;;;;;5032721;28;20201;-63
2022/11/11 03:12:36;;;;;;;20.77;11.85;;;11.10;99.90;;;;;;5033118;28;20190;-63
2022/11/11 03:15:03;;;;;;;20.80;10.77;;;11.20;99.90;;;;;;5033860;28;20245;-63
2022/11/11 03:17:40;;;;;;;27.23;11.40;;;11.10;99.90;;;;;;5020072;28;20199;-63
2022/11/11 03:23:11;;;;;;;16.47;8.60;;;11.00;99.90;;;;;;5022128;28;20202;-63
2022/11/11 03:25:40;;;;;;;17.40;9.23;;;11.20;99.90;;;;;;5026798;28;20190;-62
2022/11/11 03:28:11;;;;;;;19.30;11.27;;;11.30;99.90;;;;;;5031707;28;20191;-61
2022/11/11 03:30:39;;;;;;;20.87;9.67;;;11.40;99.90;;;;;;5031804;28;20294;-62
2022/11/11 03:33:05;;;;;;;15.80;9.07;;;11.40;99.90;;;;;;5033123;28;20217;-63
2022/11/11 03:35:31;;;;;;;15.93;8.83;;;11.30;99.90;;;;;;5012151;28;20655;-63
2022/11/11 03:38:22;;;;;;;17.97;9.20;;;11.30;99.90;;;;;;5028023;28;20187;-63
2022/11/11 03:40:52;;;;;;;17.17;8.73;;;11.20;99.90;;;;;;5024958;28;20640;-62
2022/11/11 03:43:20;;;;;;;17.03;9.47;;;11.00;99.90;;;;;;5023595;28;20531;-62
2022/11/11 03:45:46;;;;;;;16.73;9.53;;;11.00;99.90;;;;;;5027109;28;20658;-62
2022/11/11 03:48:12;;;;;;;15.83;8.73;;;10.90;99.90;;;;;;5026280;28;20541;-63
2022/11/11 03:50:38;;;;;;;18.47;10.00;;;10.90;99.90;;;;;;5046698;28;20190;-63
2022/11/11 03:53:06;;;;;;;16.57;8.30;;;11.00;99.90;;;;;;5029384;28;20191;-63
2022/11/11 03:55:32;;;;;;;20.57;10.13;;;10.90;99.90;;;;;;5028221;28;20187;-62
2022/11/11 03:57:57;;;;;;;15.27;8.40;;;10.90;99.90;;;;;;5032875;28;20195;-63
2022/11/11 04:00:26;;;;;;;16.57;8.50;;;10.90;99.90;;;;;;5031327;28;20293;-63
2022/11/11 04:11:35;;;;;;;13.83;8.80;;;10.90;99.90;;;;;;5019214;28;20314;-63
2022/11/11 04:16:51;;;;;;;12.40;7.63;;;10.90;99.90;;;;;;5026193;28;20726;-63
2022/11/11 04:22:01;;;;;;;14.38;9.73;;;10.90;99.90;;;;;;5015252;28;20623;-63
2022/11/11 04:27:14;;;;;;;14.40;7.43;;;11.00;99.90;;;;;;5027076;28;20229;-63
2022/11/11 04:29:40;;;;;;;15.87;8.07;;;10.80;99.90;;;;;;5029045;28;20202;-63
2022/11/11 04:34:58;;;;;;;13.37;7.83;;;10.90;99.90;;;;;;5029363;28;20197;-62
2022/11/11 04:37:25;;;;;;;11.57;7.90;;;10.90;99.90;;;;;;5029872;28;20539;-62
2022/11/11 04:42:36;;;;;;;12.50;8.20;;;10.90;99.90;;;;;;5031913;28;20209;-62
2022/11/11 04:48:00;;;;;;;13.10;7.33;;;10.70;99.90;;;;;;5027759;28;20226;-62
2022/11/11 04:50:32;;;;;;;13.00;8.03;;;10.70;99.90;;;;;;5028368;28;20665;-62
2022/11/11 04:52:58;;;;;;;11.47;8.07;;;10.70;99.90;;;;;;5027687;28;20183;-62
2022/11/11 04:58:09;;;;;;;13.57;7.70;;;10.60;99.90;;;;;;5028492;28;20271;-62
2022/11/11 05:00:35;;;;;;;14.00;8.17;;;10.60;99.90;;;;;;5016862;28;20574;-62
2022/11/11 05:03:16;;;;;;;11.80;8.43;;;10.60;99.90;;;;;;5030892;28;20244;-62
2022/11/11 05:08:57;;;;;;;11.67;7.67;;;10.50;99.90;;;;;;5032534;28;20201;-62
2022/11/11 05:11:33;;;;;;;17.97;9.00;;;10.50;99.90;;;;;;5030565;28;20189;-62
2022/11/11 05:22:29;;;;;;;13.93;7.67;;;10.40;99.90;;;;;;5020779;28;20198;-62
2022/11/11 05:27:39;;;;;;;11.63;6.63;;;10.20;99.90;;;;;;5017110;28;20610;-62
2022/11/11 05:30:06;;;;;;;11.47;6.93;;;10.10;99.90;;;;;;5029332;28;20199;-63
2022/11/11 05:32:32;;;;;;;13.40;6.70;;;10.10;99.90;;;;;;5038000;28;20198;-62
2022/11/11 05:34:58;;;;;;;11.20;7.10;;;10.10;99.90;;;;;;5013740;28;20188;-62
2022/11/11 05:37:23;;;;;;;8.07;6.03;;;10.10;99.90;;;;;;5015998;28;20187;-65
2022/11/11 05:39:49;;;;;;;11.30;6.60;;;10.00;99.90;;;;;;5025708;28;20282;-62
2022/11/11 05:42:15;;;;;;;9.73;5.33;;;10.00;99.90;;;;;;5018040;28;20236;-63
2022/11/11 05:44:41;;;;;;;10.03;5.83;;;10.10;99.90;;;;;;5031487;28;20191;-61
2022/11/11 05:47:07;;;;;;;10.47;5.73;;;10.20;99.90;;;;;;5019586;28;20629;-62
2022/11/11 05:49:33;;;;;;;10.80;6.50;;;10.30;99.90;;;;;;5030741;28;20218;-62
2022/11/11 05:51:59;;;;;;;14.17;7.70;;;10.40;99.90;;;;;;5029467;28;20222;-63
2022/11/11 05:54:25;;;;;;;16.47;7.53;;;10.40;99.90;;;;;;5031434;28;20530;-62
2022/11/11 05:56:50;;;;;;;10.83;6.67;;;10.40;99.90;;;;;;5019992;28;20612;-62
2022/11/11 05:59:16;;;;;;;13.00;6.20;;;10.30;99.90;;;;;;5030799;28;20190;-62
2022/11/11 06:01:42;;;;;;;11.03;7.00;;;10.30;99.90;;;;;;5006073;28;20195;-62
2022/11/11 06:04:08;;;;;;;13.30;8.27;;;10.20;99.90;;;;;;5034533;28;20194;-62
2022/11/11 06:06:34;;;;;;;10.80;7.37;;;10.10;99.90;;;;;;5034586;28;20206;-62
2022/11/11 06:09:01;;;;;;;13.47;6.87;;;10.10;99.90;;;;;;5034247;28;20183;-62
2022/11/11 06:11:27;;;;;;;13.17;7.83;;;10.10;99.90;;;;;;5034168;28;20187;-62
2022/11/11 06:13:53;;;;;;;14.23;8.80;;;10.00;99.90;;;;;;5031274;28;20186;-62
2022/11/11 06:16:19;;;;;;;10.47;7.27;;;10.00;99.90;;;;;;5019913;28;20194;-62
2022/11/11 06:18:44;;;;;;;15.23;8.50;;;9.90;99.90;;;;;;5029329;28;20191;-62
2022/11/11 06:21:10;;;;;;;12.17;8.60;;;9.80;99.90;;;;;;5030534;28;20194;-62
2022/11/11 06:23:36;;;;;;;19.30;9.03;;;9.90;99.90;;;;;;5030611;28;20216;-63
2022/11/11 06:26:15;;;;;;;13.33;8.87;;;9.90;99.90;;;;;;5029775;28;20218;-62
2022/11/11 06:28:54;;;;;;;13.07;8.33;;;9.90;99.90;;;;;;5027972;28;20183;-62
2022/11/11 06:31:25;;;;;;;18.00;9.63;;;9.90;99.90;;;;;;5027294;28;20316;-62
2022/11/11 06:33:51;;;;;;;17.07;9.57;;;9.90;99.90;;;;;;5030900;28;20591;-63
2022/11/11 06:36:18;;;;;;;18.33;10.33;;;9.90;99.90;;;;;;5019943;28;20191;-63
2022/11/11 06:38:44;;;;;;;21.57;9.83;;;9.80;99.90;;;;;;5016181;28;20179;-62
2022/11/11 06:41:14;;;;;;;15.53;9.47;;;9.90;99.90;;;;;;5014354;28;20207;-62
2022/11/11 06:43:41;;;;;;;18.87;9.20;;;9.80;99.90;;;;;;5032097;28;20182;-61
2022/11/11 06:46:26;;;;;;;14.17;8.80;;;9.90;99.90;;;;;;5030665;28;20302;-61
2022/11/11 06:48:52;;;;;;;13.40;9.17;;;9.90;99.90;;;;;;5033498;28;20185;-61
2022/11/11 06:51:18;;;;;;;14.30;8.73;;;9.90;99.90;;;;;;5031127;28;20270;-61
2022/11/11 06:53:43;;;;;;;16.10;9.40;;;9.80;99.90;;;;;;5032914;28;20198;-62
2022/11/11 06:56:11;;;;;;;17.20;10.33;;;9.80;99.90;;;;;;5024965;28;20202;-62
2022/11/11 06:58:37;;;;;;;17.33;10.43;;;9.90;99.90;;;;;;5017361;28;20278;-63
2022/11/11 07:01:04;;;;;;;16.40;9.70;;;10.00;99.90;;;;;;5014998;28;20219;-61
2022/11/11 07:03:31;;;;;;;14.33;8.47;;;9.90;99.90;;;;;;5022426;28;20183;-62
2022/11/11 07:06:00;;;;;;;18.70;9.83;;;9.90;99.90;;;;;;5026967;28;20264;-63
2022/11/11 07:08:26;;;;;;;23.00;10.43;;;9.90;99.90;;;;;;5021428;28;20179;-62
2022/11/11 07:10:51;;;;;;;19.40;9.90;;;9.80;99.90;;;;;;5019169;28;20190;-63
2022/11/11 07:13:17;;;;;;;23.80;10.70;;;9.90;99.90;;;;;;5038726;28;20190;-62
2022/11/11 07:15:43;;;;;;;23.53;10.07;;;9.90;99.90;;;;;;5025264;28;20191;-63
2022/11/11 07:18:09;;;;;;;20.03;10.67;;;9.80;99.90;;;;;;5017920;28;20198;-62
2022/11/11 07:20:36;;;;;;;22.67;11.03;;;9.90;99.90;;;;;;5028380;28;20610;-63
2022/11/11 07:23:02;;;;;;;19.23;10.63;;;10.00;99.90;;;;;;5033262;28;20718;-64
2022/11/11 07:25:28;;;;;;;18.63;10.10;;;10.10;99.90;;;;;;5016192;28;20194;-65
2022/11/11 07:27:54;;;;;;;17.03;9.23;;;10.20;99.90;;;;;;5001225;28;20226;-65
2022/11/11 07:30:20;;;;;;;17.90;9.33;;;10.10;99.90;;;;;;4998559;28;20203;-63
2022/11/11 07:32:47;;;;;;;23.63;10.63;;;10.30;99.90;;;;;;5021555;28;20553;-64
2022/11/11 07:35:14;;;;;;;21.77;9.77;;;10.40;99.90;;;;;;5032114;28;20837;-65
2022/11/11 07:37:40;;;;;;;16.10;9.83;;;10.40;99.90;;;;;;5027372;28;20543;-66
2022/11/11 07:40:07;;;;;;;18.00;10.57;;;10.30;99.90;;;;;;5045357;28;20233;-65
2022/11/11 07:42:36;;;;;;;16.87;8.93;;;10.30;99.90;;;;;;5027390;28;20195;-65
2022/11/11 07:45:02;;;;;;;16.90;9.43;;;10.30;99.90;;;;;;5029046;28;20190;-65
2022/11/11 07:47:27;;;;;;;18.03;9.43;;;10.40;99.90;;;;;;5032180;28;20222;-65
2022/11/11 07:49:53;;;;;;;15.43;9.67;;;10.40;99.90;;;;;;5043882;28;20199;-66
2022/11/11 07:52:19;;;;;;;14.83;8.43;;;10.40;99.90;;;;;;5027521;28;20190;-66
2022/11/11 07:54:44;;;;;;;18.23;9.43;;;10.30;99.90;;;;;;5025972;28;20190;-65
2022/11/11 07:57:10;;;;;;;15.67;9.63;;;10.30;99.90;;;;;;5032366;28;20191;-65
2022/11/11 07:59:35;;;;;;;18.33;9.37;;;10.30;99.90;;;;;;5013877;28;20588;-65
2022/11/11 08:02:02;;;;;;;16.87;9.73;;;10.30;99.90;;;;;;5026309;28;20214;-65
2022/11/11 08:04:27;;;;;;;18.33;9.00;;;10.40;99.90;;;;;;5018611;28;20320;-65
2022/11/11 08:06:53;;;;;;;16.57;8.87;;;10.60;99.90;;;;;;5032382;28;20680;-65
2022/11/11 08:09:19;;;;;;;19.90;9.00;;;10.60;99.90;;;;;;5029971;28;20241;-65
2022/11/11 08:14:28;;;;;;;16.80;8.37;;;10.60;99.90;;;;;;5022273;28;20623;-65
2022/11/11 08:16:54;;;;;;;14.53;7.87;;;10.60;99.90;;;;;;5020968;28;20188;-65
2022/11/11 08:19:20;;;;;;;16.07;8.77;;;10.60;99.90;;;;;;5014489;28;20186;-65
2022/11/11 08:21:45;;;;;;;12.90;8.33;;;10.70;99.90;;;;;;5021842;28;20647;-66
2022/11/11 08:24:11;;;;;;;12.40;7.73;;;10.70;99.90;;;;;;5027159;28;20273;-65
2022/11/11 08:26:36;;;;;;;14.77;9.03;;;10.70;99.90;;;;;;5004718;28;20211;-66
2022/11/11 08:29:02;;;;;;;15.20;7.73;;;10.60;99.90;;;;;;5023343;28;20233;-65
2022/11/11 08:31:28;;;;;;;11.90;6.50;;;10.60;99.90;;;;;;5023277;28;20233;-65
2022/11/11 08:33:54;;;;;;;12.60;7.67;;;10.50;99.90;;;;;;5026220;28;20201;-66
2022/11/11 08:36:22;;;;;;;12.03;7.30;;;10.60;99.90;;;;;;5014304;28;20598;-65
2022/11/11 08:38:47;;;;;;;10.67;7.00;;;10.60;99.90;;;;;;5024439;28;20186;-65
2022/11/11 08:41:13;;;;;;;13.50;8.13;;;10.70;99.90;;;;;;5016323;28;20184;-65
2022/11/11 08:43:39;;;;;;;17.57;7.37;;;10.80;99.90;;;;;;5012436;28;20195;-65
2022/11/11 08:46:06;;;;;;;11.17;6.67;;;10.90;99.90;;;;;;5000261;28;20221;-66
2022/11/11 08:48:31;;;;;;;13.60;7.80;;;10.90;99.90;;;;;;4997686;28;20190;-65
2022/11/11 08:50:58;;;;;;;11.97;6.27;;;11.00;99.90;;;;;;5025866;28;20644;-65
2022/11/11 08:53:23;;;;;;;16.73;7.07;;;11.10;99.90;;;;;;5010627;28;20190;-65
2022/11/11 08:55:49;;;;;;;12.10;7.30;;;11.00;99.90;;;;;;4995372;28;20557;-66
2022/11/11 08:58:15;;;;;;;14.77;7.23;;;11.00;99.90;;;;;;4998072;28;20192;-65
2022/11/11 09:00:41;;;;;;;14.10;7.63;;;11.00;99.90;;;;;;5009235;28;20606;-66
2022/11/11 09:03:10;;;;;;;12.63;6.57;;;11.20;99.90;;;;;;5011126;28;20178;-65
2022/11/11 09:05:39;;;;;;;15.80;7.30;;;11.20;99.90;;;;;;5010842;28;20207;-66
2022/11/11 09:08:06;;;;;;;12.90;6.37;;;11.10;99.90;;;;;;5018021;28;20179;-65
2022/11/11 09:10:33;;;;;;;12.43;7.07;;;11.30;99.90;;;;;;5022615;28;20186;-66
2022/11/11 09:12:59;;;;;;;12.30;6.68;;;11.40;99.90;;;;;;5022749;28;20186;-65
2022/11/11 09:15:26;;;;;;;11.60;7.78;;;11.50;99.90;;;;;;5026411;28;20189;-66
2022/11/11 09:17:55;;;;;;;17.63;8.25;;;11.50;99.90;;;;;;5022964;28;20502;-67
2022/11/11 09:20:21;;;;;;;13.43;7.07;;;11.50;99.90;;;;;;4998971;28;20597;-65
2022/11/11 09:22:48;;;;;;;15.57;6.37;;;11.60;99.90;;;;;;4975465;28;20723;-65
2022/11/11 09:25:15;;;;;;;11.10;6.77;;;11.50;99.90;;;;;;5027524;28;20214;-66
2022/11/11 09:27:41;;;;;;;11.47;7.40;;;11.50;99.90;;;;;;5025724;28;20226;-63
2022/11/11 09:30:08;;;;;;;11.30;8.00;;;11.60;99.90;;;;;;5008960;28;20289;-64
2022/11/11 09:32:35;;;;;;;15.82;7.38;;;11.70;99.90;;;;;;5017566;28;20206;-65
2022/11/11 09:35:02;;;;;;;12.15;7.07;;;11.80;99.90;;;;;;5042189;28;20655;-65
2022/11/11 09:37:28;;;;;;;13.05;7.50;;;11.90;99.90;;;;;;5018057;28;20554;-64
2022/11/11 09:39:56;;;;;;;10.25;6.88;;;12.00;99.90;;;;;;5019215;28;20191;-69
2022/11/11 09:42:39;;;;;;;13.82;7.15;;;12.10;99.90;;;;;;5024613;28;20249;-65
2022/11/11 09:45:27;;;;;;;12.60;7.80;;;12.00;99.90;;;;;;5028325;28;20186;-68
2022/11/11 09:47:52;;;;;;;11.23;6.90;;;12.00;99.90;;;;;;5023884;28;20205;-65
2022/11/11 09:50:22;;;;;;;14.57;8.60;;;11.90;99.90;;;;;;5029277;28;20182;-69
2022/11/11 09:53:03;;;;;;;11.82;6.43;;;12.00;99.90;;;;;;5023277;28;20186;-66
2022/11/11 09:55:37;;;;;;;9.98;6.07;;;12.10;99.90;;;;;;5028460;28;20183;-65
2022/11/11 09:58:28;;;;;;;13.20;6.32;;;12.00;99.90;;;;;;5020845;28;20202;-66
2022/11/11 10:01:01;;;;;;;8.98;6.55;;;12.00;99.90;;;;;;5031216;28;20182;-64
2022/11/11 10:03:30;;;;;;;12.88;6.25;;;12.20;99.90;;;;;;5036048;28;20183;-68
2022/11/11 10:06:27;;;;;;;12.02;6.35;;;12.40;99.90;;;;;;5021541;28;20179;-64
2022/11/11 10:09:06;;;;;;;7.30;5.60;;;12.50;99.90;;;;;;5020031;28;20191;-66
2022/11/11 10:12:10;;;;;;;7.88;5.03;;;12.50;99.90;;;;;;5029723;28;20205;-69
2022/11/11 10:14:44;;;;;;;8.60;5.05;;;12.50;99.90;;;;;;5025281;28;20224;-65
2022/11/11 10:17:33;;;;;;;11.88;4.97;;;12.70;99.90;;;;;;5029205;28;20201;-64
2022/11/11 10:20:22;;;;;;;11.30;5.03;;;12.80;99.90;;;;;;5021347;28;20328;-67
2022/11/11 10:22:53;;;;;;;7.38;4.72;;;12.80;99.90;;;;;;5024181;28;20192;-64
2022/11/11 10:25:21;;;;;;;9.27;4.53;;;12.90;99.90;;;;;;5033461;28;20246;-65
2022/11/11 10:27:50;;;;;;;5.15;4.43;;;12.90;99.90;;;;;;5028111;28;20261;-68
2022/11/11 10:30:29;;;;;;;5.55;3.88;;;13.00;99.90;;;;;;5030852;28;20191;-65
2022/11/11 10:33:16;;;;;;;5.38;4.20;;;13.00;99.90;;;;;;5026893;28;20201;-66
2022/11/11 10:35:42;;;;;;;10.88;5.03;;;12.90;99.90;;;;;;5028765;28;20178;-64
2022/11/11 10:38:36;;;;;;;6.20;4.22;;;12.90;99.90;;;;;;5032643;28;20648;-64
2022/11/11 10:41:14;;;;;;;6.80;3.80;;;13.00;99.90;;;;;;5012995;28;20280;-66
2022/11/11 10:43:45;;;;;;;8.45;4.28;;;13.20;99.90;;;;;;5028984;28;20175;-65
2022/11/11 10:46:23;;;;;;;6.70;4.18;;;13.30;99.90;;;;;;5034108;28;20226;-66
2022/11/11 10:49:02;;;;;;;4.78;3.45;;;13.30;99.90;;;;;;5032022;28;20244;-66
2022/11/11 10:51:34;;;;;;;7.95;4.80;;;13.30;99.90;;;;;;5025039;28;20193;-68
2022/11/11 10:54:21;;;;;;;9.15;4.45;;;13.50;99.90;;;;;;5027533;28;20605;-66
2022/11/11 10:57:08;;;;;;;5.82;3.70;;;13.50;99.90;;;;;;5027999;28;20271;-71
2022/11/11 10:59:40;;;;;;;4.53;3.67;;;13.40;99.90;;;;;;5034066;28;20689;-68
2022/11/11 11:02:18;;;;;;;4.00;3.08;;;13.60;99.90;;;;;;5046155;28;20263;-67
2022/11/11 11:05:23;;;;;;;6.43;2.83;;;13.70;99.90;;;;;;5034137;28;20312;-65
2022/11/11 11:07:52;;;;;;;4.18;3.03;;;13.60;99.90;;;;;;5027503;28;20214;-70
2022/11/11 11:10:24;;;;;;;3.72;2.67;;;13.60;99.90;;;;;;5026503;28;20191;-69
2022/11/11 11:12:52;;;;;;;4.13;2.90;;;13.80;99.90;;;;;;5025652;28;20517;-66
2022/11/11 11:15:22;;;;;;;4.57;3.45;;;13.80;99.90;;;;;;5027727;28;20187;-66
2022/11/11 11:18:07;;;;;;;3.88;2.78;;;14.00;99.90;;;;;;5030212;28;20179;-65
2022/11/11 11:20:33;;;;;;;3.78;2.80;;;14.00;99.90;;;;;;5032559;28;20182;-65
2022/11/11 11:23:00;;;;;;;4.00;2.85;;;14.20;99.90;;;;;;5032144;28;20183;-65
2022/11/11 11:25:28;;;;;;;5.03;2.75;;;14.30;99.90;;;;;;5033477;28;20189;-66
2022/11/11 11:28:04;;;;;;;6.40;3.50;;;14.30;99.90;;;;;;5010818;28;20268;-66
2022/11/11 11:30:30;;;;;;;6.03;4.20;;;14.10;99.90;;;;;;5031495;28;20201;-66
2022/11/11 11:33:00;;;;;;;3.78;3.47;;;14.20;99.90;;;;;;5030266;28;20191;-67
2022/11/11 11:35:34;;;;;;;4.97;3.75;;;14.10;99.90;;;;;;5012626;28;20217;-67
2022/11/11 11:38:00;;;;;;;4.32;3.72;;;14.10;99.90;;;;;;5027624;28;20662;-67
2022/11/11 11:40:27;;;;;;;5.57;4.35;;;14.20;99.90;;;;;;5015852;28;20190;-66
2022/11/11 11:42:53;;;;;;;4.68;3.70;;;14.10;99.90;;;;;;5031654;28;20540;-68
2022/11/11 11:45:23;;;;;;;4.68;3.08;;;13.90;99.90;;;;;;5046896;28;20183;-65
2022/11/11 11:48:13;;;;;;;5.38;3.05;;;13.90;99.90;;;;;;5026779;28;20305;-63
2022/11/11 11:50:49;;;;;;;3.00;2.70;;;14.00;99.90;;;;;;5023202;28;20579;-65
2022/11/11 11:53:40;;;;;;;3.17;1.90;;;14.10;99.90;;;;;;5028746;28;20179;-66
2022/11/11 11:56:37;;;;;;;2.53;2.33;;;14.20;99.90;;;;;;5032961;28;20182;-66
2022/11/11 11:59:27;;;;;;;4.68;2.50;;;14.20;99.90;;;;;;5016535;28;20211;-66
2022/11/11 12:02:10;;;;;;;3.47;2.45;;;14.20;99.90;;;;;;5043509;28;20190;-66
2022/11/11 12:04:53;;;;;;;4.80;3.30;;;14.20;99.90;;;;;;5022253;28;20193;-64
2022/11/11 12:07:46;;;;;;;3.63;3.17;;;14.30;99.90;;;;;;5036528;28;20668;-66
2022/11/11 12:10:37;;;;;;;3.55;3.00;;;14.20;99.90;;;;;;5028416;28;20671;-65
2022/11/11 12:13:19;;;;;;;5.18;2.58;;;14.30;99.90;;;;;;5030829;28;20241;-66
2022/11/11 12:15:57;;;;;;;3.83;3.47;;;14.30;99.90;;;;;;5031293;28;20175;-65
2022/11/11 12:18:44;;;;;;;8.18;3.05;;;14.50;99.90;;;;;;5031314;28;20187;-65
2022/11/11 12:21:18;;;;;;;2.85;2.65;;;14.60;99.90;;;;;;5030341;28;20183;-66
2022/11/11 12:23:57;;;;;;;2.92;1.90;;;14.50;99.90;;;;;;5030523;28;20185;-66
2022/11/11 12:27:02;;;;;;;4.20;2.53;;;14.60;99.90;;;;;;5046487;28;20207;-66
2022/11/11 12:29:47;;;;;;;4.30;2.33;;;14.60;99.90;;;;;;5021303;28;20210;-67
2022/11/11 12:32:43;;;;;;;2.38;2.17;;;14.80;99.90;;;;;;5027722;28;20853;-65
2022/11/11 12:35:38;;;;;;;7.45;2.33;;;15.00;99.90;;;;;;5020204;28;20236;-66
2022/11/11 12:38:22;;;;;;;3.22;2.25;;;15.10;99.90;;;;;;5037681;28;20304;-66
2022/11/11 12:40:50;;;;;;;3.72;2.40;;;15.00;99.90;;;;;;5026630;28;20202;-67
2022/11/11 12:43:40;;;;;;;3.67;2.65;;;15.10;99.90;;;;;;5028545;28;20186;-64
2022/11/11 12:46:30;;;;;;;3.13;2.20;;;15.20;99.90;;;;;;5025093;28;20330;-66
2022/11/11 12:49:01;;;;;;;3.33;2.33;;;15.30;99.90;;;;;;5033597;28;20187;-65
2022/11/11 12:51:38;;;;;;;4.40;3.05;;;15.30;99.90;;;;;;5031830;28;20186;-66
2022/11/11 12:54:52;;;;;;;4.07;2.35;;;15.30;99.90;;;;;;5026513;28;20550;-65
2022/11/11 12:57:26;;;;;;;8.43;3.35;;;15.40;99.90;;;;;;5024262;28;20289;-64
2022/11/11 13:00:08;;;;;;;8.18;4.07;;;15.60;99.90;;;;;;5024186;28;20190;-65
2022/11/11 13:02:55;;;;;;;7.63;3.50;;;15.50;99.90;;;;;;5018441;28;20174;-65
2022/11/11 13:05:41;;;;;;;5.68;2.85;;;15.60;99.90;;;;;;5030367;28;20214;-67
2022/11/11 13:08:29;;;;;;;4.28;2.28;;;15.50;99.90;;;;;;5030794;28;20222;-65
2022/11/11 13:11:13;;;;;;;3.97;2.78;;;15.50;99.90;;;;;;5025628;28;20178;-65
2022/11/11 13:13:53;;;;;;;3.15;2.67;;;15.50;99.90;;;;;;5020947;28;20187;-66
2022/11/11 13:16:23;;;;;;;3.95;2.47;;;15.40;99.90;;;;;;5029875;28;20225;-66
2022/11/11 13:19:03;;;;;;;2.88;2.03;;;15.30;99.90;;;;;;5029282;28;20268;-66
2022/11/11 13:22:01;;;;;;;7.32;2.50;;;15.30;99.90;;;;;;5019654;28;20179;-65
2022/11/11 13:24:30;;;;;;;3.50;2.15;;;15.40;99.90;;;;;;5028166;28;20198;-66
2022/11/11 13:27:33;;;;;;;4.50;2.97;;;15.60;99.90;;;;;;5034633;28;20218;-66
2022/11/11 13:30:04;;;;;;;5.53;3.35;;;15.70;99.90;;;;;;5016514;28;20198;-66
2022/11/11 13:32:53;;;;;;;4.22;2.88;;;15.70;99.90;;;;;;5043393;28;20194;-65
2022/11/11 13:35:30;;;;;;;4.47;2.42;;;15.60;99.90;;;;;;5028998;28;20214;-67
2022/11/11 13:37:56;;;;;;;2.40;1.80;;;15.60;99.90;;;;;;5032617;28;20190;-65
2022/11/11 13:40:43;;;;;;;2.85;1.80;;;15.70;99.90;;;;;;5035407;28;20654;-65
2022/11/11 13:43:39;;;;;;;3.13;2.70;;;15.60;99.90;;;;;;5033727;28;20684;-65
2022/11/11 13:46:06;;;;;;;3.15;2.40;;;15.40;99.90;;;;;;5033063;28;20206;-66
2022/11/11 13:48:45;;;;;;;5.70;2.35;;;15.40;99.90;;;;;;5029876;28;20193;-66
2022/11/11 13:51:30;;;;;;;3.30;2.47;;;15.50;99.90;;;;;;5016862;28;20179;-65
2022/11/11 13:53:58;;;;;;;2.70;2.10;;;15.40;99.90;;;;;;5032761;28;20174;-65
2022/11/11 13:56:41;;;;;;;2.83;1.83;;;15.30;99.90;;;;;;5030578;28;20194;-65
2022/11/11 13:59:18;;;;;;;2.92;1.90;;;15.50;99.90;;;;;;5030524;28;20245;-65
2022/11/11 14:01:44;;;;;;;1.40;1.33;;;15.50;99.90;;;;;;5025705;28;20643;-65
2022/11/11 14:04:10;;;;;;;2.22;2.13;;;15.60;99.90;;;;;;5030578;28;20207;-65
2022/11/11 14:06:47;;;;;;;2.72;1.80;;;15.60;99.90;;;;;;5006958;28;20289;-65
2022/11/11 14:09:51;;;;;;;3.70;2.50;;;15.50;99.90;;;;;;5031739;28;20536;-65
2022/11/11 14:12:33;;;;;;;1.98;1.80;;;15.40;99.90;;;;;;5032818;28;20290;-68
2022/11/11 14:14:58;;;;;;;3.10;1.77;;;15.40;99.90;;;;;;5035415;28;20174;-65
2022/11/11 14:17:27;;;;;;;2.53;2.03;;;15.40;99.90;;;;;;5028510;28;20209;-66
2022/11/11 14:19:53;;;;;;;4.18;1.70;;;15.40;99.90;;;;;;5031436;28;20635;-66